Chewelah, Washington
Current Conditions -  °F | °C
As of 6:53 PM on Monday 20 Oct 2014 (Local Time) from KDEW Reporting Station
Overcast Overcast  
Wind Chill: 58°   Ceiling: 11000
Heat Index: 58°   Visibility: 10mi
Dew Point: 48°   Wind: 6mph
Humidity: 70%   Direction: 180°S
Pressure: 29.72"   Gusts: NA
Location:  48.28°N, 117.72°W
Report Text: KDEW 210153Z AUTO 18005KT 10SM OVC110 14/09 A2972 RMK AO2 SLP067 T01440089
Loading
Personal Weather Stations






























Interactive Weather Map
Tropical Storm Tracking
New forecast layout! Learn more

10-Day Weather Forecast

Advertisements
Track Severe Weather on mobile